Time;durP1;ratioP1;P1;durP2;ratioP2;P2;SDS_P1;SDS_P2;PMS_P1;PMS_P2;Temp;Humidity;BMP_temperature;BMP_pressure;BME280_temperature;BME280_humidity;BME280_pressure;Samples;Min_cycle;Max_cycle;Signal;HPM_P1;HPM_P2
2023/05/07 00:00:37;;;;;;;5.77;5.60;;;22.30;91.20;;;;;;5074646;28;20439;-55
2023/05/07 00:03:05;;;;;;;6.33;6.13;;;22.30;91.10;;;;;;5074453;28;20873;-55
2023/05/07 00:05:32;;;;;;;6.00;5.80;;;22.30;91.00;;;;;;5073719;28;20938;-52
2023/05/07 00:07:58;;;;;;;6.50;5.97;;;22.30;91.10;;;;;;5073854;28;20549;-51
2023/05/07 00:10:27;;;;;;;5.83;5.63;;;22.30;91.10;;;;;;5074131;28;20471;-52
2023/05/07 00:12:54;;;;;;;5.90;5.70;;;22.30;91.20;;;;;;5074010;28;20530;-51
2023/05/07 00:15:21;;;;;;;6.40;6.10;;;22.30;91.10;;;;;;5074731;28;20981;-53
2023/05/07 00:17:48;;;;;;;6.27;6.07;;;22.30;91.20;;;;;;5074657;28;20471;-53
2023/05/07 00:20:15;;;;;;;6.10;5.90;;;22.30;91.10;;;;;;5075001;28;20497;-54
2023/05/07 00:22:42;;;;;;;5.77;5.53;;;22.20;91.20;;;;;;5075037;28;21010;-53
2023/05/07 00:25:10;;;;;;;5.93;5.63;;;22.30;91.10;;;;;;5074194;28;20551;-56
2023/05/07 00:27:38;;;;;;;6.40;6.20;;;22.30;91.20;;;;;;5074391;28;20496;-55
2023/05/07 00:30:06;;;;;;;7.10;6.83;;;22.30;91.20;;;;;;5074687;28;20447;-56
2023/05/07 00:32:33;;;;;;;6.60;6.40;;;22.30;91.00;;;;;;5073342;28;21069;-54
2023/05/07 00:35:00;;;;;;;5.53;5.43;;;22.30;91.10;;;;;;5073746;28;20439;-56
2023/05/07 00:37:27;;;;;;;6.00;5.80;;;22.20;91.10;;;;;;5073725;28;20481;-53
2023/05/07 00:39:54;;;;;;;5.70;5.50;;;22.20;91.10;;;;;;5074267;28;20478;-52
2023/05/07 00:42:21;;;;;;;5.57;5.37;;;22.20;91.10;;;;;;5074149;28;20475;-51
2023/05/07 00:44:50;;;;;;;5.60;5.50;;;22.20;91.30;;;;;;5073808;28;20483;-54
2023/05/07 00:47:17;;;;;;;6.20;5.90;;;22.20;91.20;;;;;;5073488;28;20471;-56
2023/05/07 00:49:45;;;;;;;5.43;5.23;;;22.20;91.20;;;;;;5073518;28;20537;-51
2023/05/07 00:52:15;;;;;;;5.80;5.70;;;22.20;91.30;;;;;;5073765;28;20458;-52
2023/05/07 00:54:43;;;;;;;5.83;5.73;;;22.20;91.00;;;;;;5073766;28;20465;-51
2023/05/07 00:57:11;;;;;;;6.00;5.80;;;22.20;91.00;;;;;;5073327;28;20550;-56
2023/05/07 00:59:38;;;;;;;5.90;5.80;;;22.20;91.10;;;;;;5073618;28;20534;-53
2023/05/07 01:02:06;;;;;;;6.43;6.23;;;22.20;91.10;;;;;;5073410;28;20478;-53
2023/05/07 01:04:33;;;;;;;6.87;6.57;;;22.20;91.10;;;;;;5073422;28;20522;-53
2023/05/07 01:07:02;;;;;;;6.60;6.30;;;22.20;91.10;;;;;;5077680;22;20562;-52
2023/05/07 01:09:29;;;;;;;7.33;7.03;;;22.20;91.00;;;;;;5071167;28;20526;-54
2023/05/07 01:11:57;;;;;;;6.00;5.80;;;22.20;90.90;;;;;;5071031;28;20497;-52
2023/05/07 01:14:25;;;;;;;6.33;6.13;;;22.20;90.90;;;;;;5071415;28;20496;-51
2023/05/07 01:16:53;;;;;;;6.23;6.03;;;22.20;91.00;;;;;;5078066;28;20470;-51
2023/05/07 01:19:21;;;;;;;6.23;5.93;;;22.20;91.00;;;;;;5071206;28;20869;-52
2023/05/07 01:21:49;;;;;;;6.37;6.07;;;22.20;90.90;;;;;;5071288;28;20444;-51
2023/05/07 01:24:18;;;;;;;6.40;6.20;;;22.20;90.90;;;;;;5071125;28;20482;-54
2023/05/07 01:26:45;;;;;;;6.40;5.90;;;22.20;90.90;;;;;;5072309;28;20467;-53
2023/05/07 01:29:12;;;;;;;6.20;6.00;;;22.10;90.90;;;;;;5082423;28;20534;-52
2023/05/07 01:31:41;;;;;;;6.00;5.80;;;22.10;90.80;;;;;;5071241;28;20526;-51
2023/05/07 01:34:11;;;;;;;6.27;5.90;;;22.20;90.90;;;;;;5071397;28;20617;-51
2023/05/07 01:36:39;;;;;;;6.47;6.17;;;22.20;90.80;;;;;;5074987;28;20572;-55
2023/05/07 01:39:07;;;;;;;6.40;6.20;;;22.20;90.90;;;;;;5071300;28;20450;-51
2023/05/07 01:41:36;;;;;;;5.87;5.77;;;22.10;91.00;;;;;;5071375;28;20452;-52
2023/05/07 01:44:05;;;;;;;6.50;6.30;;;22.10;90.80;;;;;;5070982;28;20446;-54
2023/05/07 01:46:33;;;;;;;5.10;5.00;;;22.10;90.80;;;;;;5073955;28;20477;-54
2023/05/07 01:49:00;;;;;;;5.70;5.50;;;22.10;90.80;;;;;;5082652;28;20538;-56
2023/05/07 01:51:27;;;;;;;5.90;5.70;;;22.10;90.90;;;;;;5071194;28;20539;-55
2023/05/07 01:53:54;;;;;;;5.60;5.40;;;22.10;90.90;;;;;;5071242;28;20475;-56
2023/05/07 01:56:21;;;;;;;5.23;5.13;;;22.10;90.90;;;;;;5072347;28;20551;-57
2023/05/07 01:58:51;;;;;;;4.70;4.60;;;22.10;90.80;;;;;;5092939;28;20442;-56
2023/05/07 02:01:18;;;;;;;5.40;5.20;;;22.10;90.70;;;;;;5097543;28;20492;-52
2023/05/07 02:03:45;;;;;;;5.10;5.00;;;22.10;90.70;;;;;;5097004;28;20438;-56
2023/05/07 02:06:12;;;;;;;4.93;4.83;;;22.10;90.70;;;;;;5091698;28;20557;-51
2023/05/07 02:08:39;;;;;;;5.37;5.17;;;22.10;90.80;;;;;;5096620;28;20481;-54
2023/05/07 02:11:06;;;;;;;5.00;4.90;;;22.10;90.80;;;;;;5096841;28;20454;-50
2023/05/07 02:13:34;;;;;;;5.00;4.90;;;22.10;90.60;;;;;;5096726;28;20485;-53
2023/05/07 02:16:02;;;;;;;5.00;4.90;;;22.10;90.80;;;;;;5094869;28;20462;-51
2023/05/07 02:18:29;;;;;;;5.10;4.90;;;22.10;90.70;;;;;;5096635;28;20443;-54
2023/05/07 02:20:56;;;;;;;4.87;4.77;;;22.10;90.80;;;;;;5097550;28;20442;-53
2023/05/07 02:23:23;;;;;;;5.20;5.10;;;22.10;90.70;;;;;;5097293;28;20485;-54
2023/05/07 02:25:50;;;;;;;5.57;5.37;;;22.10;90.70;;;;;;5096116;28;20528;-54
2023/05/07 02:28:16;;;;;;;5.30;5.10;;;22.10;90.80;;;;;;5096759;28;20868;-52
2023/05/07 02:30:43;;;;;;;5.27;5.07;;;22.10;90.70;;;;;;5096443;28;20474;-55
2023/05/07 02:33:12;;;;;;;5.33;5.13;;;22.10;90.80;;;;;;5096990;28;20470;-52
2023/05/07 02:35:39;;;;;;;5.00;4.90;;;22.10;90.90;;;;;;5096352;28;20470;-54
2023/05/07 02:38:06;;;;;;;5.03;4.93;;;22.00;90.80;;;;;;5096507;28;20935;-52
2023/05/07 02:40:34;;;;;;;5.33;5.20;;;22.00;90.70;;;;;;5096682;28;20590;-53
2023/05/07 02:43:01;;;;;;;5.27;5.07;;;22.00;90.70;;;;;;5095894;28;20450;-55
2023/05/07 02:45:28;;;;;;;5.00;4.90;;;22.00;90.60;;;;;;5090839;28;20557;-55
2023/05/07 02:47:55;;;;;;;5.20;5.00;;;22.00;90.70;;;;;;5096263;28;20501;-54
2023/05/07 02:50:23;;;;;;;4.73;4.60;;;22.00;90.70;;;;;;5096675;28;20509;-55
2023/05/07 02:52:50;;;;;;;4.90;4.80;;;22.00;90.60;;;;;;5096883;28;20450;-55
2023/05/07 02:55:17;;;;;;;5.63;5.43;;;22.00;90.50;;;;;;5076139;28;20534;-55
2023/05/07 02:57:44;;;;;;;5.33;5.13;;;22.00;90.50;;;;;;5075815;28;20479;-54
2023/05/07 03:00:15;;;;;;;5.40;5.10;;;22.00;90.50;;;;;;5076756;28;20792;-57
2023/05/07 03:02:42;;;;;;;5.47;5.27;;;22.00;90.50;;;;;;5076788;28;20475;-54
2023/05/07 03:05:09;;;;;;;5.20;5.10;;;22.00;90.40;;;;;;5094510;28;20502;-54
2023/05/07 03:07:38;;;;;;;5.20;5.10;;;22.00;90.40;;;;;;5095869;28;20548;-52
2023/05/07 03:10:06;;;;;;;5.50;5.30;;;22.00;90.40;;;;;;5096215;28;20482;-52
2023/05/07 03:12:33;;;;;;;4.97;4.77;;;22.00;90.30;;;;;;5096501;28;20443;-54
2023/05/07 03:14:59;;;;;;;5.60;5.40;;;22.00;90.40;;;;;;5080382;28;21011;-53
2023/05/07 03:17:26;;;;;;;5.17;5.07;;;22.00;90.30;;;;;;5076029;28;20467;-54
2023/05/07 03:19:53;;;;;;;4.83;4.63;;;22.00;90.20;;;;;;5076243;28;20876;-54
2023/05/07 03:22:20;;;;;;;5.07;4.87;;;22.00;90.20;;;;;;5075345;28;20474;-55
2023/05/07 03:24:48;;;;;;;4.77;4.67;;;22.00;90.20;;;;;;5087588;28;20529;-52
2023/05/07 03:27:15;;;;;;;5.80;5.27;;;22.00;90.20;;;;;;5095111;28;20729;-52
2023/05/07 03:29:42;;;;;;;5.20;5.00;;;22.00;90.20;;;;;;5095016;28;20529;-53
2023/05/07 03:32:09;;;;;;;5.30;5.10;;;22.00;90.70;;;;;;5095476;28;20549;-54
2023/05/07 03:34:36;;;;;;;4.90;4.80;;;21.90;90.20;;;;;;5094970;28;20500;-51
2023/05/07 03:37:02;;;;;;;4.73;4.63;;;22.00;90.20;;;;;;5095632;28;20504;-52
2023/05/07 03:39:30;;;;;;;5.20;5.10;;;21.90;90.30;;;;;;5095411;28;20473;-54
2023/05/07 03:41:58;;;;;;;5.80;5.50;;;22.00;90.10;;;;;;5095665;28;20496;-55
2023/05/07 03:44:25;;;;;;;5.27;5.17;;;21.90;90.10;;;;;;5084519;28;20475;-52
2023/05/07 03:46:52;;;;;;;5.20;5.10;;;21.90;90.10;;;;;;5090100;28;20910;-57
2023/05/07 03:49:19;;;;;;;5.20;5.00;;;21.90;90.00;;;;;;5096695;28;20521;-52
2023/05/07 03:51:46;;;;;;;5.97;5.67;;;21.90;90.10;;;;;;5096267;28;20541;-53
2023/05/07 03:54:13;;;;;;;4.93;4.83;;;21.90;90.00;;;;;;5085658;28;20471;-52
2023/05/07 03:56:39;;;;;;;4.60;4.50;;;21.90;90.10;;;;;;5074055;28;20538;-53
2023/05/07 03:59:08;;;;;;;5.00;4.90;;;21.90;90.10;;;;;;5073898;28;20497;-54
2023/05/07 04:01:35;;;;;;;4.83;4.73;;;21.90;90.00;;;;;;5074664;28;20475;-54
2023/05/07 04:04:03;;;;;;;5.03;4.93;;;21.90;90.00;;;;;;5081637;28;20784;-54
2023/05/07 04:06:30;;;;;;;5.20;5.10;;;21.90;89.90;;;;;;5095521;28;21007;-51
2023/05/07 04:08:57;;;;;;;5.33;5.20;;;21.90;89.80;;;;;;5095269;28;20904;-53
2023/05/07 04:11:24;;;;;;;5.47;5.27;;;21.90;89.80;;;;;;5096131;28;20478;-53
2023/05/07 04:13:51;;;;;;;5.27;5.03;;;21.90;89.70;;;;;;5096186;28;20452;-52
2023/05/07 04:16:19;;;;;;;5.13;5.03;;;21.90;89.70;;;;;;5096270;28;20509;-56
2023/05/07 04:18:46;;;;;;;5.27;5.10;;;21.90;89.70;;;;;;5096608;28;20474;-54
2023/05/07 04:21:16;;;;;;;5.43;5.33;;;21.90;89.60;;;;;;5096242;28;20974;-55
2023/05/07 04:23:43;;;;;;;4.80;4.70;;;21.90;89.70;;;;;;5078118;28;20475;-52
2023/05/07 04:26:10;;;;;;;4.90;4.70;;;21.90;89.40;;;;;;5075846;28;20511;-51
2023/05/07 04:28:37;;;;;;;4.97;4.60;;;21.90;89.40;;;;;;5075356;28;20527;-54
2023/05/07 04:31:04;;;;;;;5.00;4.90;;;21.90;89.30;;;;;;5075509;28;20486;-54
2023/05/07 04:33:33;;;;;;;4.70;4.60;;;21.90;89.40;;;;;;5091748;28;20485;-53
2023/05/07 04:36:03;;;;;;;4.43;4.33;;;21.90;89.50;;;;;;5096053;28;20482;-54
2023/05/07 04:38:31;;;;;;;5.40;5.20;;;21.90;89.40;;;;;;5096012;28;20846;-52
2023/05/07 04:40:58;;;;;;;4.80;4.70;;;21.90;89.30;;;;;;5094125;28;20439;-53
2023/05/07 04:43:25;;;;;;;4.37;4.13;;;21.90;89.40;;;;;;5079119;28;20468;-51
2023/05/07 04:45:52;;;;;;;5.30;5.20;;;21.90;89.40;;;;;;5076452;28;20483;-51
2023/05/07 04:48:20;;;;;;;5.47;5.27;;;21.80;89.30;;;;;;5075649;28;20475;-52
2023/05/07 04:50:50;;;;;;;5.37;5.27;;;21.90;89.20;;;;;;5078529;28;20469;-51
2023/05/07 04:53:17;;;;;;;5.20;5.10;;;21.80;89.40;;;;;;5095462;28;20981;-54
2023/05/07 04:55:44;;;;;;;5.30;5.10;;;21.80;89.30;;;;;;5095657;28;20486;-53
2023/05/07 04:58:11;;;;;;;5.27;5.07;;;21.80;89.20;;;;;;5095437;28;20814;-53
2023/05/07 05:00:39;;;;;;;5.43;5.33;;;21.80;89.30;;;;;;5093738;28;20527;-55
2023/05/07 05:03:06;;;;;;;6.00;5.50;;;21.80;89.30;;;;;;5076292;28;20448;-53
2023/05/07 05:05:32;;;;;;;5.00;4.90;;;21.80;89.10;;;;;;5075591;28;20972;-53
2023/05/07 05:08:01;;;;;;;5.40;5.30;;;21.80;89.10;;;;;;5075398;28;20478;-54
2023/05/07 05:10:28;;;;;;;5.13;5.03;;;21.80;89.00;;;;;;5075744;28;20885;-55
2023/05/07 05:12:54;;;;;;;5.27;4.90;;;21.80;88.90;;;;;;5095424;28;20477;-54
2023/05/07 05:15:21;;;;;;;4.77;4.67;;;21.80;89.00;;;;;;5095720;28;20478;-51
2023/05/07 05:17:48;;;;;;;5.20;5.10;;;21.80;88.80;;;;;;5095895;28;20525;-52
2023/05/07 05:20:15;;;;;;;5.07;4.97;;;21.80;88.60;;;;;;5095886;28;20477;-52
2023/05/07 05:22:42;;;;;;;4.90;4.70;;;21.80;88.80;;;;;;5078903;28;20525;-52
2023/05/07 05:25:11;;;;;;;4.73;4.63;;;21.80;88.70;;;;;;5095818;28;20446;-55
2023/05/07 05:27:38;;;;;;;5.27;5.17;;;21.80;88.70;;;;;;5094977;28;20494;-52
2023/05/07 05:30:06;;;;;;;5.20;5.10;;;21.80;88.50;;;;;;5095572;28;20511;-52
2023/05/07 05:32:33;;;;;;;5.50;5.30;;;21.80;88.40;;;;;;5078400;28;20451;-53
2023/05/07 05:35:00;;;;;;;5.40;5.30;;;21.80;88.60;;;;;;5078847;28;20473;-51
2023/05/07 05:37:27;;;;;;;5.40;5.20;;;21.80;88.60;;;;;;5079287;28;20466;-51
2023/05/07 05:39:54;;;;;;;5.73;5.53;;;21.80;88.40;;;;;;5078856;28;20443;-51
2023/05/07 05:42:22;;;;;;;5.13;5.03;;;21.80;88.80;;;;;;5084493;28;20445;-54
2023/05/07 05:44:49;;;;;;;4.83;4.73;;;21.80;88.70;;;;;;5078657;28;20467;-52
2023/05/07 05:47:16;;;;;;;5.97;5.77;;;21.80;88.60;;;;;;5079052;28;20514;-52
2023/05/07 05:49:44;;;;;;;5.00;4.90;;;21.80;88.60;;;;;;5094948;28;20859;-52
2023/05/07 05:52:14;;;;;;;5.20;5.10;;;21.80;88.50;;;;;;5085049;28;20447;-51
2023/05/07 05:54:41;;;;;;;6.00;5.80;;;21.80;88.70;;;;;;5079538;28;20542;-51
2023/05/07 05:57:08;;;;;;;5.70;5.50;;;21.80;88.50;;;;;;5079398;28;20463;-51
2023/05/07 05:59:36;;;;;;;5.17;4.97;;;21.80;88.60;;;;;;5089232;28;20537;-54
2023/05/07 06:02:03;;;;;;;5.40;5.30;;;21.80;88.50;;;;;;5099835;28;20466;-53
2023/05/07 06:04:30;;;;;;;5.50;5.30;;;21.80;88.60;;;;;;5099362;28;20473;-51
2023/05/07 06:06:57;;;;;;;5.90;5.70;;;21.80;88.60;;;;;;5099076;28;20904;-52
2023/05/07 06:09:24;;;;;;;5.87;5.67;;;21.80;88.50;;;;;;5093679;28;20449;-55
2023/05/07 06:11:51;;;;;;;5.93;5.73;;;21.80;88.60;;;;;;5099223;28;20466;-52
2023/05/07 06:14:18;;;;;;;5.43;5.33;;;21.80;88.70;;;;;;5099282;28;20470;-51
2023/05/07 06:16:46;;;;;;;5.50;5.30;;;21.80;88.80;;;;;;5099249;28;20490;-51
2023/05/07 06:19:13;;;;;;;5.67;5.57;;;21.80;88.70;;;;;;5088369;28;20452;-51
2023/05/07 06:21:41;;;;;;;5.70;5.60;;;21.80;88.60;;;;;;5078416;28;21175;-53
2023/05/07 06:24:08;;;;;;;5.93;5.83;;;21.80;88.90;;;;;;5092790;28;20451;-52
2023/05/07 06:26:35;;;;;;;5.70;5.60;;;21.80;88.70;;;;;;5098714;28;20517;-51
2023/05/07 06:29:02;;;;;;;5.10;5.00;;;21.80;88.80;;;;;;5092526;28;20444;-51
2023/05/07 06:31:32;;;;;;;5.63;5.43;;;21.80;88.70;;;;;;5078593;28;20447;-54
2023/05/07 06:34:01;;;;;;;5.03;4.93;;;21.80;88.60;;;;;;5079368;28;20443;-52
2023/05/07 06:36:28;;;;;;;6.07;5.87;;;21.80;88.60;;;;;;5078830;28;20462;-51
2023/05/07 06:38:55;;;;;;;5.77;5.67;;;21.80;88.40;;;;;;5085357;28;20481;-53
2023/05/07 06:41:22;;;;;;;5.50;5.40;;;21.80;88.50;;;;;;5098546;28;20478;-52
2023/05/07 06:43:49;;;;;;;5.97;5.77;;;21.80;88.40;;;;;;5098411;28;20962;-53
2023/05/07 06:57:34;;;;;;;6.67;6.47;;;21.80;87.70;;;;;;5102136;27;20574;-64
2023/05/07 07:00:01;;;;;;;6.50;6.30;;;22.20;86.60;;;;;;5088893;28;20860;-64
2023/05/07 07:02:28;;;;;;;6.33;6.23;;;22.20;85.90;;;;;;5069190;28;20512;-63
2023/05/07 07:04:55;;;;;;;5.80;5.70;;;22.20;86.20;;;;;;5068623;28;20482;-64
2023/05/07 07:07:21;;;;;;;6.80;6.60;;;22.20;86.50;;;;;;5068344;28;20550;-61
2023/05/07 07:09:48;;;;;;;6.30;6.20;;;22.10;86.90;;;;;;5069145;28;20946;-64
2023/05/07 07:12:15;;;;;;;6.80;6.60;;;22.10;87.40;;;;;;5051860;28;20476;-64
2023/05/07 07:14:43;;;;;;;7.23;7.13;;;22.00;87.80;;;;;;5048500;28;20506;-64
2023/05/07 07:17:10;;;;;;;7.40;7.20;;;22.00;88.10;;;;;;5048159;28;20493;-65
2023/05/07 07:19:38;;;;;;;7.20;6.90;;;22.00;88.40;;;;;;5060720;28;20527;-62
2023/05/07 07:22:05;;;;;;;7.00;6.80;;;22.00;88.30;;;;;;5068387;28;20447;-61
2023/05/07 07:24:32;;;;;;;7.10;6.70;;;22.00;88.20;;;;;;5068178;28;20498;-61
2023/05/07 07:26:59;;;;;;;7.20;6.90;;;22.00;88.10;;;;;;5067958;28;20578;-61
2023/05/07 07:29:26;;;;;;;7.37;7.10;;;22.00;88.10;;;;;;5063505;28;21012;-62
2023/05/07 07:31:55;;;;;;;7.23;6.93;;;22.00;88.30;;;;;;5068045;28;20452;-62
2023/05/07 07:34:22;;;;;;;7.00;6.80;;;21.90;88.40;;;;;;5068067;28;20516;-63
2023/05/07 07:36:48;;;;;;;7.03;6.83;;;21.90;88.60;;;;;;5067699;28;20497;-61
2023/05/07 07:39:15;;;;;;;6.80;6.70;;;21.90;88.60;;;;;;5058975;28;20491;-60
2023/05/07 07:41:42;;;;;;;7.77;7.53;;;21.90;88.60;;;;;;5048010;28;20456;-61
2023/05/07 07:44:12;;;;;;;6.40;6.30;;;21.90;88.80;;;;;;5047923;28;20488;-63
2023/05/07 07:46:39;;;;;;;6.73;6.53;;;21.90;88.70;;;;;;5047650;28;20483;-61
2023/05/07 07:49:07;;;;;;;7.07;6.80;;;21.90;88.80;;;;;;5054867;28;20486;-62
2023/05/07 07:51:35;;;;;;;6.73;6.53;;;21.90;88.90;;;;;;5067654;28;20471;-61
2023/05/07 07:54:02;;;;;;;7.23;7.03;;;21.90;89.10;;;;;;5067660;28;20452;-63
2023/05/07 07:56:29;;;;;;;7.83;7.63;;;21.90;88.70;;;;;;5077142;28;20455;-64
2023/05/07 07:58:56;;;;;;;7.03;6.87;;;22.00;89.10;;;;;;5072241;28;20558;-67
2023/05/07 08:01:23;;;;;;;7.80;7.60;;;22.00;90.10;;;;;;5074236;28;20486;-62
2023/05/07 08:03:50;;;;;;;7.13;7.00;;;22.10;90.00;;;;;;5074299;28;20857;-63
2023/05/07 08:06:18;;;;;;;7.00;6.80;;;22.20;89.20;;;;;;5074162;28;20565;-63
2023/05/07 08:08:45;;;;;;;7.47;7.33;;;22.20;88.30;;;;;;5073450;28;20479;-62
2023/05/07 08:11:12;;;;;;;7.50;7.30;;;22.30;87.90;;;;;;5074177;28;20837;-62
2023/05/07 08:13:39;;;;;;;7.23;7.03;;;22.40;87.40;;;;;;5074171;28;20486;-62
2023/05/07 08:16:06;;;;;;;7.30;7.10;;;22.40;87.00;;;;;;5074028;28;20443;-62
2023/05/07 08:18:33;;;;;;;6.90;6.80;;;22.50;86.60;;;;;;5072070;28;20554;-62
2023/05/07 08:21:00;;;;;;;7.40;7.20;;;22.50;86.20;;;;;;5074246;28;21044;-63
2023/05/07 08:23:28;;;;;;;7.20;7.10;;;22.60;86.00;;;;;;5073970;28;20452;-60
2023/05/07 08:25:55;;;;;;;7.27;7.07;;;22.60;85.50;;;;;;5066393;28;20511;-63
2023/05/07 08:28:24;;;;;;;6.87;6.67;;;22.60;85.10;;;;;;5053516;28;21037;-61
2023/05/07 08:30:51;;;;;;;7.07;6.88;;;22.70;85.00;;;;;;5053050;28;20469;-65
2023/05/07 08:33:18;;;;;;;8.00;7.80;;;22.70;85.60;;;;;;5053775;28;20616;-65
2023/05/07 08:35:45;;;;;;;7.57;7.37;;;22.70;85.60;;;;;;5054634;28;20582;-65
2023/05/07 08:38:12;;;;;;;8.03;7.83;;;22.80;85.00;;;;;;5072333;28;20464;-67
2023/05/07 08:40:41;;;;;;;12.20;8.00;;;22.80;84.90;;;;;;5073558;28;20478;-66
2023/05/07 08:43:09;;;;;;;8.20;8.00;;;22.80;84.90;;;;;;5073705;28;20817;-66
2023/05/07 08:45:36;;;;;;;9.13;8.73;;;22.80;85.00;;;;;;5072091;28;20580;-66
2023/05/07 08:48:05;;;;;;;8.03;7.83;;;22.80;85.10;;;;;;5072697;28;20525;-64
2023/05/07 08:50:32;;;;;;;7.97;7.77;;;22.90;85.00;;;;;;5073536;28;20534;-64
2023/05/07 08:52:59;;;;;;;7.83;7.53;;;22.90;84.60;;;;;;5073444;28;20516;-64
2023/05/07 08:55:26;;;;;;;8.03;7.83;;;22.90;84.20;;;;;;5073425;28;20486;-68
2023/05/07 08:57:55;;;;;;;7.93;7.73;;;23.00;84.70;;;;;;5071128;28;20558;-68
2023/05/07 09:00:22;;;;;;;8.77;8.27;;;23.00;84.40;;;;;;5058608;28;20480;-69
2023/05/07 09:02:49;;;;;;;8.13;7.83;;;23.00;84.40;;;;;;5053467;28;20468;-63
2023/05/07 09:05:16;;;;;;;8.80;8.50;;;23.00;84.20;;;;;;5053237;28;20495;-64
2023/05/07 09:07:43;;;;;;;8.23;8.03;;;23.10;83.70;;;;;;5053913;28;20917;-60
2023/05/07 09:10:10;;;;;;;7.80;7.60;;;23.00;83.20;;;;;;5052233;28;20535;-69
2023/05/07 09:12:38;;;;;;;7.73;7.53;;;23.10;84.60;;;;;;5053066;28;20467;-69
2023/05/07 09:15:08;;;;;;;7.93;7.43;;;23.10;83.80;;;;;;5053168;28;20505;-66
2023/05/07 09:17:35;;;;;;;7.97;7.77;;;23.10;83.70;;;;;;5066581;28;20498;-67
2023/05/07 09:20:07;;;;;;;7.77;7.47;;;23.20;83.80;;;;;;5072754;28;20478;-64
2023/05/07 09:22:34;;;;;;;7.63;7.43;;;23.20;83.30;;;;;;5072814;28;20813;-67
2023/05/07 09:25:01;;;;;;;8.77;8.57;;;23.20;83.30;;;;;;5072794;28;20486;-66
2023/05/07 09:27:28;;;;;;;7.43;7.03;;;23.20;83.60;;;;;;5069551;28;20446;-65
2023/05/07 09:29:55;;;;;;;7.38;7.07;;;23.20;84.00;;;;;;5072183;28;20525;-63
2023/05/07 09:32:23;;;;;;;8.20;8.00;;;23.30;84.40;;;;;;5072484;28;20254;-63
2023/05/07 09:34:50;;;;;;;8.20;8.00;;;23.30;84.20;;;;;;5072624;28;20444;-64
2023/05/07 09:37:17;;;;;;;8.07;7.83;;;23.30;84.20;;;;;;5066616;28;20967;-63
2023/05/07 09:39:46;;;;;;;8.70;8.50;;;23.40;84.40;;;;;;5057450;28;20450;-65
2023/05/07 09:42:14;;;;;;;8.30;7.90;;;23.40;85.40;;;;;;5052383;28;20539;-62
2023/05/07 09:44:42;;;;;;;7.80;7.60;;;23.40;85.30;;;;;;5052330;28;20498;-64
2023/05/07 09:47:09;;;;;;;7.60;7.40;;;23.30;84.70;;;;;;5060691;28;20998;-61
2023/05/07 09:49:42;;;;;;;7.83;7.63;;;23.40;84.40;;;;;;5072178;28;20935;-61
2023/05/07 09:52:10;;;;;;;8.00;7.80;;;23.40;84.60;;;;;;5072236;28;20447;-62
2023/05/07 09:54:38;;;;;;;7.70;7.50;;;23.40;84.80;;;;;;5067237;28;20458;-63
2023/05/07 09:57:07;;;;;;;6.18;5.97;;;23.40;84.50;;;;;;5070889;28;20463;-63
2023/05/07 09:59:35;;;;;;;7.80;7.50;;;23.40;84.70;;;;;;5072109;28;20201;-63
2023/05/07 10:02:04;;;;;;;8.80;8.57;;;23.40;84.20;;;;;;5072022;28;20474;-62
2023/05/07 10:04:32;;;;;;;7.80;7.60;;;23.40;84.20;;;;;;5057843;28;20448;-63
2023/05/07 10:07:01;;;;;;;8.50;8.27;;;23.40;84.40;;;;;;5051653;28;21022;-64
2023/05/07 10:09:28;;;;;;;8.30;8.10;;;23.40;84.90;;;;;;5051886;28;20813;-66
2023/05/07 10:11:57;;;;;;;8.57;8.27;;;23.30;85.00;;;;;;5057712;28;20471;-61
2023/05/07 10:14:25;;;;;;;8.13;7.93;;;23.30;85.10;;;;;;5072014;28;21023;-62
2023/05/07 10:16:53;;;;;;;8.17;7.87;;;23.30;85.00;;;;;;5071592;28;20482;-60
2023/05/07 10:19:20;;;;;;;8.10;7.90;;;23.30;84.80;;;;;;5071906;28;20581;-62
2023/05/07 10:21:56;;;;;;;8.30;8.00;;;23.40;84.80;;;;;;5067500;28;20472;-63
2023/05/07 10:24:27;;;;;;;8.30;8.10;;;23.40;84.60;;;;;;5060524;28;20458;-63
2023/05/07 10:26:56;;;;;;;8.27;7.97;;;23.40;84.50;;;;;;5071494;28;20905;-61
2023/05/07 10:29:34;;;;;;;7.77;7.57;;;23.50;84.20;;;;;;5071581;28;20471;-66
2023/05/07 10:32:20;;;;;;;7.47;7.27;;;23.50;83.20;;;;;;5069178;28;20500;-65
2023/05/07 10:34:51;;;;;;;7.43;7.22;;;23.50;82.90;;;;;;5063350;28;20508;-61
2023/05/07 10:37:18;;;;;;;7.70;7.50;;;23.50;83.00;;;;;;5071561;28;20265;-62
2023/05/07 10:39:47;;;;;;;8.30;8.10;;;23.50;83.00;;;;;;5071750;28;20470;-59
2023/05/07 10:42:15;;;;;;;8.63;8.33;;;23.50;82.70;;;;;;5069792;28;20522;-65
2023/05/07 10:44:42;;;;;;;8.60;8.30;;;23.50;82.40;;;;;;5071578;28;20487;-62
2023/05/07 10:47:11;;;;;;;8.60;8.30;;;23.50;82.30;;;;;;5071264;28;20900;-64
2023/05/07 10:50:04;;;;;;;6.70;6.50;;;23.60;82.40;;;;;;5071903;28;20487;-62
2023/05/07 10:52:31;;;;;;;8.33;8.03;;;23.60;82.50;;;;;;5068024;28;20487;-64
2023/05/07 10:55:25;;;;;;;7.67;7.47;;;23.70;81.60;;;;;;5053026;28;20471;-63
2023/05/07 10:57:52;;;;;;;8.10;7.90;;;23.70;81.10;;;;;;5052292;28;20460;-63
2023/05/07 11:00:44;;;;;;;7.90;7.70;;;23.80;81.00;;;;;;5051653;28;20475;-64
2023/05/07 11:03:11;;;;;;;8.10;7.90;;;23.80;80.90;;;;;;5065119;28;21013;-62
2023/05/07 11:05:40;;;;;;;8.30;8.07;;;23.80;80.80;;;;;;5071680;28;20450;-64
2023/05/07 11:08:07;;;;;;;7.97;7.70;;;23.80;80.60;;;;;;5072134;28;20486;-63
2023/05/07 11:10:53;;;;;;;8.30;8.10;;;23.80;80.40;;;;;;5072614;28;20443;-63
2023/05/07 11:13:43;;;;;;;8.67;8.30;;;23.90;80.60;;;;;;5071522;28;20501;-63
2023/05/07 11:16:19;;;;;;;8.20;7.90;;;23.90;80.30;;;;;;5073326;28;20478;-64
2023/05/07 11:18:49;;;;;;;7.93;7.73;;;23.90;80.40;;;;;;5075481;28;20463;-63
2023/05/07 11:21:33;;;;;;;8.67;8.17;;;23.80;80.70;;;;;;5074615;28;20538;-61
2023/05/07 11:24:01;;;;;;;8.63;8.23;;;23.80;81.00;;;;;;5074751;28;20478;-63
2023/05/07 11:26:31;;;;;;;8.13;7.93;;;23.80;81.00;;;;;;5077343;28;20528;-63
2023/05/07 11:29:00;;;;;;;8.53;8.23;;;23.70;80.90;;;;;;5077946;28;20451;-63
2023/05/07 11:31:29;;;;;;;8.20;8.00;;;23.70;81.10;;;;;;5068957;28;20999;-63
2023/05/07 11:33:56;;;;;;;8.00;7.80;;;23.70;81.00;;;;;;5059406;28;20861;-62
2023/05/07 11:36:24;;;;;;;8.00;7.77;;;23.70;81.00;;;;;;5063075;28;20444;-63
2023/05/07 11:38:52;;;;;;;7.97;7.77;;;23.70;80.70;;;;;;5063691;28;20464;-63
2023/05/07 11:41:20;;;;;;;7.67;7.47;;;23.80;81.80;;;;;;5064519;28;20456;-63
2023/05/07 11:43:59;;;;;;;7.60;7.40;;;23.80;80.90;;;;;;5062073;28;20440;-64
2023/05/07 11:46:27;;;;;;;7.77;7.57;;;23.80;80.80;;;;;;5061453;28;20451;-63
2023/05/07 11:48:54;;;;;;;7.60;7.40;;;23.80;81.00;;;;;;5062356;28;20484;-64
2023/05/07 11:51:22;;;;;;;8.20;8.00;;;23.80;81.70;;;;;;5070897;28;20446;-63
2023/05/07 11:53:50;;;;;;;8.43;8.13;;;23.80;80.90;;;;;;5074879;28;20462;-63
2023/05/07 11:56:18;;;;;;;7.87;7.67;;;23.80;81.00;;;;;;5074121;28;20491;-57
2023/05/07 11:58:47;;;;;;;7.93;7.63;;;23.80;80.90;;;;;;5074232;28;20497;-58
2023/05/07 12:01:16;;;;;;;8.43;8.13;;;23.90;80.30;;;;;;5067532;28;20975;-64
2023/05/07 12:03:45;;;;;;;8.67;8.47;;;23.90;79.90;;;;;;5054390;28;20451;-58
2023/05/07 12:06:12;;;;;;;7.87;7.67;;;23.90;79.20;;;;;;5054093;28;20810;-51
2023/05/07 12:08:40;;;;;;;8.03;7.83;;;23.90;79.30;;;;;;5053974;28;20520;-59
2023/05/07 12:11:17;;;;;;;8.57;8.30;;;24.00;79.50;;;;;;5073510;28;20534;-60
2023/05/07 12:13:44;;;;;;;8.67;8.37;;;24.10;79.40;;;;;;5074162;28;20504;-57
2023/05/07 12:16:11;;;;;;;8.90;8.60;;;24.10;79.20;;;;;;5074061;28;20595;-60
2023/05/07 12:18:42;;;;;;;12.13;11.82;;;24.10;79.80;;;;;;5073839;28;20419;-62
2023/05/07 12:21:10;;;;;;;14.33;13.63;;;24.10;80.00;;;;;;5069015;28;20243;-64
2023/05/07 12:23:38;;;;;;;15.73;14.77;;;24.20;80.10;;;;;;5073859;28;20455;-62
2023/05/07 12:26:05;;;;;;;21.63;19.83;;;24.20;79.80;;;;;;5074010;28;21003;-63
2023/05/07 12:28:38;;;;;;;19.40;17.83;;;24.20;79.00;;;;;;5073641;28;20570;-61
2023/05/07 12:31:05;;;;;;;22.60;18.83;;;24.30;78.70;;;;;;5054841;28;20467;-63
2023/05/07 12:33:32;;;;;;;18.13;16.20;;;24.30;79.30;;;;;;5053788;28;20539;-63
2023/05/07 12:36:06;;;;;;;16.53;15.40;;;24.30;78.90;;;;;;5053836;28;20452;-62
2023/05/07 12:38:37;;;;;;;18.47;17.37;;;24.30;78.60;;;;;;5053454;28;20819;-63
2023/05/07 12:41:05;;;;;;;18.60;17.13;;;24.40;78.30;;;;;;5053647;28;20535;-62
2023/05/07 12:43:32;;;;;;;17.83;16.53;;;24.40;78.50;;;;;;5053516;28;20472;-62
2023/05/07 12:46:01;;;;;;;18.17;17.07;;;24.40;78.30;;;;;;5053576;28;20475;-64
2023/05/07 12:48:28;;;;;;;17.37;16.20;;;24.50;78.50;;;;;;5063501;28;20485;-63
2023/05/07 12:50:56;;;;;;;14.00;13.20;;;24.50;78.70;;;;;;5072716;28;20442;-65
2023/05/07 12:53:26;;;;;;;16.47;15.67;;;24.40;78.80;;;;;;5073423;28;20236;-66
2023/05/07 12:55:55;;;;;;;18.77;17.40;;;24.50;78.70;;;;;;5073199;28;20487;-64
2023/05/07 12:58:27;;;;;;;22.13;20.63;;;24.50;78.60;;;;;;5071415;28;20542;-63
2023/05/07 13:00:58;;;;;;;21.43;19.83;;;24.60;77.80;;;;;;5073192;28;20451;-62